Time;durP1;ratioP1;P1;durP2;ratioP2;P2;SDS_P1;SDS_P2;PMS_P1;PMS_P2;Temp;Humidity;BMP_temperature;BMP_pressure;BME280_temperature;BME280_humidity;BME280_pressure;Samples;Min_cycle;Max_cycle;Signal;HPM_P1;HPM_P2
2021/12/07 00:01:07;;;;;;;32.97;16.40;;;;;;;0.07;86.63;95746.69;5087812;28;20044;-76
2021/12/07 00:03:34;;;;;;;31.63;15.30;;;;;;;0.06;86.42;95750.44;5088197;28;20047;-77
2021/12/07 00:06:00;;;;;;;32.80;16.10;;;;;;;0.07;86.36;95758.19;5087450;28;20534;-77
2021/12/07 00:08:29;;;;;;;35.58;15.50;;;;;;;0.06;86.42;95753.91;5087607;28;20055;-77
2021/12/07 00:10:56;;;;;;;34.78;16.55;;;;;;;0.06;86.29;95751.22;5088302;28;20052;-76
2021/12/07 00:13:24;;;;;;;27.88;15.07;;;;;;;0.09;86.41;95752.56;5087328;28;20495;-76
2021/12/07 00:15:51;;;;;;;33.72;15.80;;;;;;;0.09;86.19;95749.88;5088088;28;20052;-77
2021/12/07 00:18:17;;;;;;;28.27;14.30;;;;;;;0.11;86.16;95748.56;5086977;28;20419;-77
2021/12/07 00:20:44;;;;;;;31.83;14.75;;;;;;;0.14;86.05;95750.69;5088097;28;20047;-76
2021/12/07 00:23:11;;;;;;;29.63;15.20;;;;;;;0.13;86.20;95746.41;5087167;28;20063;-74
2021/12/07 00:25:40;;;;;;;30.02;13.93;;;;;;;0.15;86.13;95744.25;5088081;28;20051;-77
2021/12/07 00:28:06;;;;;;;28.13;13.55;;;;;;;0.18;85.88;95743.75;5086829;28;20055;-75
2021/12/07 00:30:35;;;;;;;27.10;14.32;;;;;;;0.19;85.37;95749.91;5088135;28;20503;-75
2021/12/07 00:33:17;;;;;;;28.80;14.07;;;;;;;0.18;84.92;95749.09;5087401;28;20403;-72
2021/12/07 00:35:44;;;;;;;25.70;13.43;;;;;;;0.13;84.98;95735.69;5088120;28;20052;-75
2021/12/07 00:38:14;;;;;;;26.27;13.68;;;;;;;0.09;85.14;95734.63;5086589;28;20052;-75
2021/12/07 00:40:44;;;;;;;32.40;13.82;;;;;;;0.07;85.11;95723.38;5086505;28;20072;-75
2021/12/07 00:43:11;;;;;;;27.98;13.77;;;;;;;0.05;85.06;95730.88;5087040;28;20059;-75
2021/12/07 00:45:38;;;;;;;29.08;14.18;;;;;;;-0.02;85.09;95731.13;5087568;28;20058;-75
2021/12/07 00:48:08;;;;;;;28.00;13.13;;;;;;;-0.04;85.37;95719.91;5086804;28;20052;-76
2021/12/07 00:50:37;;;;;;;28.23;13.20;;;;;;;-0.07;85.11;95714.25;5087671;28;20528;-76
2021/12/07 00:53:05;;;;;;;29.15;13.23;;;;;;;-0.10;85.22;95722.84;5087079;28;20048;-74
2021/12/07 00:55:37;;;;;;;26.95;13.88;;;;;;;-0.10;85.17;95714.81;5087585;28;20048;-75
2021/12/07 00:58:16;;;;;;;25.02;12.82;;;;;;;-0.08;85.31;95726.03;5086620;28;20060;-75
2021/12/07 01:00:43;;;;;;;31.40;14.70;;;;;;;-0.12;85.46;95723.09;5087742;28;20054;-75
2021/12/07 01:03:09;;;;;;;27.50;13.10;;;;;;;-0.12;85.55;95723.09;5087013;28;20048;-75
2021/12/07 01:05:39;;;;;;;27.35;13.32;;;;;;;-0.10;85.53;95720.16;5087682;28;20052;-75
2021/12/07 01:08:20;;;;;;;24.55;12.13;;;;;;;-0.07;85.47;95724.97;5086567;28;20167;-75
2021/12/07 01:24:42;;;;;;;18.00;9.85;;;;;;;0.21;84.48;95721.78;5091010;28;20059;-75
2021/12/07 01:27:09;;;;;;;19.48;9.38;;;;;;;0.21;84.00;95711.09;5090377;28;20489;-75
2021/12/07 01:29:39;;;;;;;18.83;9.35;;;;;;;0.21;83.71;95704.94;5090991;28;20064;-75
2021/12/07 01:32:16;;;;;;;16.52;9.02;;;;;;;0.18;83.33;95710.81;5090657;28;20415;-75
2021/12/07 01:35:17;;;;;;;18.20;9.48;;;;;;;0.14;83.41;95710.53;5091285;28;20055;-75
2021/12/07 01:38:00;;;;;;;16.33;8.80;;;;;;;0.09;83.17;95707.06;5104296;28;20132;-75
2021/12/07 01:40:41;;;;;;;16.10;8.57;;;;;;;0.04;82.89;95699.81;5102813;28;20056;-77
2021/12/07 01:43:37;;;;;;;14.43;8.07;;;;;;;0.00;83.17;95688.06;5110315;27;20051;-74
2021/12/07 01:46:39;;;;;;;15.30;8.05;;;;;;;-0.03;82.88;95691.25;5110973;28;20172;-74
2021/12/07 01:52:26;;;;;;;13.65;7.10;;;;;;;-0.13;83.09;95688.56;5111314;28;20043;-77
2021/12/07 01:59:32;;;;;;;13.68;7.18;;;;;;;-0.16;83.35;95689.09;5110450;28;20209;-75
2021/12/07 02:00:56;;;;;;;12.40;6.90;;;;;;;-0.20;83.25;95696.06;5110452;28;20040;-77
2021/12/07 02:03:24;;;;;;;13.98;6.85;;;;;;;-0.19;83.00;95692.31;5110373;28;20047;-77
2021/12/07 02:05:52;;;;;;;12.18;6.20;;;;;;;-0.18;82.72;95697.41;5110943;27;20059;-77
2021/12/07 02:08:19;;;;;;;11.88;6.22;;;;;;;-0.16;82.62;95694.44;5109958;28;20548;-77
2021/12/07 02:10:47;;;;;;;11.13;6.10;;;;;;;-0.09;82.60;95695.00;5110757;28;20047;-78
2021/12/07 02:14:02;;;;;;;11.38;6.40;;;;;;;-0.01;82.27;95697.94;5110207;27;20092;-77
2021/12/07 02:16:08;;;;;;;10.80;6.30;;;;;;;0.09;82.09;95691.78;5109948;28;20054;-77
2021/12/07 02:18:36;;;;;;;10.15;6.05;;;;;;;0.15;81.88;95685.34;5110378;28;20452;-75
2021/12/07 02:21:18;;;;;;;11.65;5.90;;;;;;;0.20;81.68;95684.56;5110131;28;20531;-73
2021/12/07 02:23:45;;;;;;;9.27;5.30;;;;;;;0.22;81.56;95680.56;5110432;28;20031;-75
2021/12/07 02:26:11;;;;;;;10.38;5.97;;;;;;;0.27;81.51;95681.63;5110042;28;20444;-74
2021/12/07 02:28:39;;;;;;;10.88;6.10;;;;;;;0.35;81.33;95678.41;5109272;28;20040;-75
2021/12/07 02:31:07;;;;;;;9.23;5.85;;;;;;;0.42;80.92;95678.94;5109973;28;20054;-77
2021/12/07 02:33:34;;;;;;;9.80;5.35;;;;;;;0.43;80.55;95675.19;5110484;27;20059;-74
2021/12/07 02:36:01;;;;;;;9.15;5.43;;;;;;;0.40;80.54;95670.34;5110104;28;20446;-76
2021/12/07 02:38:29;;;;;;;8.25;5.45;;;;;;;0.39;80.55;95655.38;5109408;28;20044;-74
2021/12/07 02:40:56;;;;;;;10.85;6.22;;;;;;;0.41;80.81;95656.69;5110058;27;20058;-75
2021/12/07 02:43:23;;;;;;;10.88;6.45;;;;;;;0.44;80.64;95653.47;5110024;27;20055;-74
2021/12/07 02:45:49;;;;;;;12.00;6.05;;;;;;;0.47;80.15;95649.44;5109952;28;20418;-74
2021/12/07 02:48:16;;;;;;;9.23;5.60;;;;;;;0.46;79.98;95643.28;5109176;27;20051;-77
2021/12/07 02:50:42;;;;;;;10.10;5.72;;;;;;;0.49;80.11;95639.28;5109762;28;20048;-74
2021/12/07 02:53:09;;;;;;;11.88;5.70;;;;;;;0.50;80.01;95640.88;5109566;28;20464;-74
2021/12/07 02:55:37;;;;;;;7.95;5.28;;;;;;;0.46;79.68;95637.94;5110011;28;20050;-77
2021/12/07 02:58:03;;;;;;;8.63;5.18;;;;;;;0.48;79.97;95632.31;5108908;27;20050;-76
2021/12/07 03:00:37;;;;;;;8.77;5.30;;;;;;;0.50;79.94;95638.19;5109973;28;20058;-76
2021/12/07 03:03:08;;;;;;;8.55;5.47;;;;;;;0.53;79.76;95640.34;5109209;28;20048;-76
2021/12/07 03:05:42;;;;;;;9.68;5.50;;;;;;;0.55;79.63;95635.50;5110009;27;20040;-77
2021/12/07 03:08:41;;;;;;;8.57;4.65;;;;;;;0.58;79.85;95640.34;5108881;28;20051;-76
2021/12/07 03:27:48;;;;;;;6.63;4.10;;;;;;;0.74;78.19;95655.28;5086719;28;20567;-76
2021/12/07 03:30:15;;;;;;;7.40;4.38;;;;;;;0.81;77.90;95659.56;5108700;27;20055;-76
2021/12/07 03:32:41;;;;;;;7.95;4.18;;;;;;;0.85;77.00;95653.38;5109141;28;20048;-78
2021/12/07 03:35:08;;;;;;;6.63;4.03;;;;;;;0.88;77.09;95654.69;5108721;27;20059;-77
2021/12/07 03:37:34;;;;;;;7.38;4.10;;;;;;;0.93;77.13;95662.72;5108226;28;20403;-75
2021/12/07 03:40:01;;;;;;;6.55;3.55;;;;;;;0.97;76.65;95674.50;5108603;28;20430;-77
2021/12/07 03:42:28;;;;;;;7.07;3.60;;;;;;;0.98;76.61;95670.75;5104273;28;20110;-77
2021/12/07 03:44:55;;;;;;;4.78;2.80;;;;;;;0.96;75.98;95678.28;5109056;27;20051;-75
2021/12/07 03:47:22;;;;;;;3.53;1.90;;;;;;;0.86;74.38;95689.81;5108343;27;20051;-76
2021/12/07 03:49:48;;;;;;;5.43;1.70;;;;;;;0.64;75.94;95687.47;5108823;27;20040;-76
2021/12/07 03:52:15;;;;;;;4.90;1.90;;;;;;;0.43;78.61;95685.91;5108127;27;20043;-76
2021/12/07 03:54:42;;;;;;;4.85;2.20;;;;;;;0.17;81.63;95688.59;5108747;27;20054;-76
2021/12/07 03:57:08;;;;;;;3.47;2.08;;;;;;;-0.13;84.20;95685.91;5107909;27;20112;-76
2021/12/07 03:59:35;;;;;;;4.72;2.58;;;;;;;-0.23;85.70;95688.56;5108285;27;20055;-76
2021/12/07 04:02:03;;;;;;;4.30;2.35;;;;;;;-0.27;86.37;95689.06;5108399;27;20051;-77
2021/12/07 04:04:29;;;;;;;4.75;2.38;;;;;;;-0.32;87.14;95685.59;5108160;27;20063;-76
2021/12/07 04:06:56;;;;;;;4.65;2.58;;;;;;;-0.37;87.53;95689.06;5108131;27;20599;-76
2021/12/07 04:09:22;;;;;;;5.00;2.92;;;;;;;-0.42;88.05;95686.38;5107641;27;20512;-76
2021/12/07 04:11:49;;;;;;;4.70;2.95;;;;;;;-0.39;88.46;95677.84;5110717;27;20077;-76
2021/12/07 04:14:15;;;;;;;4.97;2.92;;;;;;;-0.35;88.45;95681.59;5107847;28;20059;-76
2021/12/07 04:16:42;;;;;;;6.40;2.90;;;;;;;-0.31;88.51;95682.69;5107676;28;20069;-76
2021/12/07 04:19:10;;;;;;;5.78;2.88;;;;;;;-0.25;88.51;95664.75;5107300;28;20055;-77
2021/12/07 04:21:36;;;;;;;5.70;2.85;;;;;;;-0.23;88.13;95672.50;5108405;28;20052;-77
2021/12/07 04:24:03;;;;;;;4.55;2.67;;;;;;;-0.25;88.29;95671.97;5107597;28;20179;-76
2021/12/07 04:26:31;;;;;;;4.25;2.95;;;;;;;-0.27;88.45;95670.34;5107950;28;20054;-77
2021/12/07 04:28:57;;;;;;;4.38;2.80;;;;;;;-0.24;88.55;95678.94;5107712;28;20070;-76
2021/12/07 04:31:24;;;;;;;6.13;2.85;;;;;;;-0.21;88.42;95681.06;5107233;28;20058;-76
2021/12/07 04:33:51;;;;;;;4.78;2.67;;;;;;;-0.21;88.38;95679.19;5108306;28;20674;-76
2021/12/07 04:36:19;;;;;;;4.68;2.63;;;;;;;-0.20;88.15;95678.13;5107327;28;20406;-76
2021/12/07 04:38:45;;;;;;;5.35;2.72;;;;;;;-0.20;88.30;95682.69;5107528;28;20051;-77
2021/12/07 04:41:12;;;;;;;5.78;2.70;;;;;;;-0.23;88.20;95688.56;5108396;28;20048;-76
2021/12/07 04:43:40;;;;;;;4.28;2.17;;;;;;;-0.19;88.62;95684.28;5108968;28;20039;-76
2021/12/07 04:46:13;;;;;;;4.72;2.72;;;;;;;-0.13;88.51;95689.38;5107644;28;20048;-76
2021/12/07 04:59:38;;;;;;;6.05;2.70;;;;;;;-0.24;89.80;95692.31;5112114;28;20112;-77
2021/12/07 05:02:05;;;;;;;3.97;2.30;;;;;;;-0.21;89.76;95686.41;5111651;28;20070;-76
2021/12/07 05:04:34;;;;;;;4.05;2.22;;;;;;;-0.19;89.59;95682.41;5112230;27;20047;-76
2021/12/07 05:07:08;;;;;;;5.13;2.25;;;;;;;-0.16;89.48;95683.75;5111582;28;20075;-76
2021/12/07 05:12:29;;;;;;;4.35;2.20;;;;;;;-0.19;89.36;95678.94;5113102;27;20116;-76
2021/12/07 05:15:03;;;;;;;4.20;2.40;;;;;;;-0.18;89.46;95680.53;5111820;28;20054;-76
2021/12/07 05:17:57;;;;;;;4.03;2.38;;;;;;;-0.19;89.39;95678.94;5111026;28;20050;-76
2021/12/07 05:34:30;;;;;;;5.75;2.50;;;;;;;-0.28;89.63;95703.53;5111745;28;20696;-76
2021/12/07 05:40:03;;;;;;;4.00;2.25;;;;;;;-0.24;89.82;95705.69;5111506;28;20063;-77
2021/12/07 05:42:30;;;;;;;4.60;2.63;;;;;;;-0.24;89.81;95708.38;5112874;27;20054;-76
2021/12/07 05:44:57;;;;;;;6.85;2.92;;;;;;;-0.20;90.04;95712.91;5111502;28;20050;-77
2021/12/07 05:47:24;;;;;;;6.25;2.70;;;;;;;-0.17;89.95;95709.69;5110497;28;20410;-77
2021/12/07 05:49:50;;;;;;;4.75;2.85;;;;;;;-0.14;90.13;95716.41;5110940;28;20047;-77
2021/12/07 05:52:17;;;;;;;5.20;2.80;;;;;;;-0.12;90.16;95716.94;5110645;28;20051;-77
2021/12/07 05:54:43;;;;;;;6.70;3.38;;;;;;;-0.06;90.06;95714.00;5110912;27;20040;-77
2021/12/07 05:57:11;;;;;;;5.75;3.15;;;;;;;-0.04;90.08;95713.75;5110231;27;20084;-78
2021/12/07 05:59:38;;;;;;;7.25;2.92;;;;;;;0.02;90.06;95717.22;5110390;28;20047;-76
2021/12/07 06:02:06;;;;;;;3.97;2.58;;;;;;;0.07;89.92;95720.72;5110536;28;20047;-76
2021/12/07 06:04:34;;;;;;;4.20;2.50;;;;;;;0.11;90.16;95726.34;5109950;28;20047;-77
2021/12/07 06:07:00;;;;;;;4.07;2.50;;;;;;;0.17;90.01;95720.72;5110607;27;20052;-77
2021/12/07 06:09:27;;;;;;;4.45;2.38;;;;;;;0.25;90.13;95722.84;5109966;27;20047;-77
2021/12/07 06:11:54;;;;;;;4.18;2.50;;;;;;;0.27;90.01;95725.28;5112672;27;20043;-76
2021/12/07 06:14:29;;;;;;;3.80;2.10;;;;;;;0.31;89.98;95720.97;5110131;28;20067;-76
2021/12/07 06:16:56;;;;;;;3.88;2.13;;;;;;;0.35;90.02;95718.56;5110347;28;20040;-76
2021/12/07 06:19:22;;;;;;;4.60;2.30;;;;;;;0.37;90.33;95721.78;5110079;28;20521;-76
2021/12/07 06:21:49;;;;;;;5.85;2.25;;;;;;;0.39;90.55;95722.31;5110455;28;20410;-78
2021/12/07 06:24:15;;;;;;;8.05;2.58;;;;;;;0.39;90.87;95722.31;5069425;28;20041;-75
2021/12/07 06:26:41;;;;;;;6.13;2.80;;;;;;;0.41;91.04;95734.34;5069707;28;20040;-75
2021/12/07 06:29:08;;;;;;;4.72;2.55;;;;;;;0.46;91.03;95728.19;5069172;28;20048;-75
2021/12/07 06:31:36;;;;;;;5.22;2.33;;;;;;;0.44;90.81;95731.16;5069297;28;20055;-73
2021/12/07 06:34:02;;;;;;;4.85;2.80;;;;;;;0.44;90.70;95731.16;5069301;28;20056;-75
2021/12/07 06:36:29;;;;;;;4.63;2.78;;;;;;;0.42;91.04;95733.31;5069591;28;20047;-75
2021/12/07 06:38:56;;;;;;;5.47;2.67;;;;;;;0.43;91.12;95744.81;5069436;28;20052;-73
2021/12/07 06:41:22;;;;;;;4.38;2.42;;;;;;;0.43;91.14;95742.94;5069816;28;20056;-74
2021/12/07 06:43:49;;;;;;;6.07;2.85;;;;;;;0.44;91.29;95746.44;5067840;28;20049;-74
2021/12/07 06:46:15;;;;;;;5.07;2.25;;;;;;;0.47;91.38;95740.50;5068465;28;20057;-74
2021/12/07 06:48:43;;;;;;;5.28;2.50;;;;;;;0.49;91.12;95760.63;5068776;28;20055;-76
2021/12/07 06:51:10;;;;;;;6.00;2.75;;;;;;;0.51;91.02;95757.66;5068717;28;20051;-74
2021/12/07 06:53:36;;;;;;;5.43;2.40;;;;;;;0.55;90.94;95757.94;5069624;28;20113;-74
2021/12/07 06:56:04;;;;;;;7.78;3.03;;;;;;;0.58;90.63;95758.22;5069003;28;20535;-74
2021/12/07 06:58:30;;;;;;;4.43;2.45;;;;;;;0.60;90.16;95757.94;5069141;28;20415;-74
2021/12/07 07:00:57;;;;;;;6.75;2.53;;;;;;;0.61;89.84;95768.38;5069475;28;20047;-74
2021/12/07 07:03:23;;;;;;;6.65;2.42;;;;;;;0.62;89.48;95759.25;5069062;28;20140;-74
2021/12/07 07:05:52;;;;;;;4.10;3.05;;;;;;;0.62;88.79;95774.53;5069098;28;20048;-74
2021/12/07 07:08:19;;;;;;;7.18;2.60;;;;;;;0.66;88.62;95775.59;5068223;28;20602;-75
2021/12/07 07:10:46;;;;;;;6.70;2.60;;;;;;;0.71;88.28;95778.28;5069047;28;20052;-74
2021/12/07 07:13:14;;;;;;;3.42;2.28;;;;;;;0.75;87.95;95782.03;5070074;28;20821;-74
2021/12/07 07:15:41;;;;;;;6.97;2.50;;;;;;;0.80;87.72;95783.91;5069105;28;20052;-74
2021/12/07 07:18:07;;;;;;;8.65;2.50;;;;;;;0.86;87.37;95790.88;5068045;28;20055;-74
2021/12/07 07:20:34;;;;;;;4.25;1.95;;;;;;;0.87;87.37;95792.47;5069039;28;20055;-74
2021/12/07 07:23:01;;;;;;;3.50;2.15;;;;;;;0.89;87.00;95804.56;5088188;28;20514;-74
2021/12/07 07:25:28;;;;;;;3.47;1.98;;;;;;;0.92;86.75;95789.78;5109455;27;20047;-73
2021/12/07 07:27:54;;;;;;;4.55;2.22;;;;;;;0.92;86.50;95800.50;5109234;28;20050;-73
2021/12/07 07:30:21;;;;;;;3.45;2.00;;;;;;;0.94;86.50;95799.19;5109149;28;20051;-73
2021/12/07 07:32:48;;;;;;;5.72;2.30;;;;;;;0.99;86.47;95801.03;5109448;28;20043;-74
2021/12/07 07:35:16;;;;;;;2.90;1.92;;;;;;;1.02;86.18;95800.50;5108857;28;20058;-73
2021/12/07 07:37:43;;;;;;;5.00;2.13;;;;;;;1.03;85.91;95807.47;5108790;27;20055;-74
2021/12/07 07:40:15;;;;;;;5.05;2.35;;;;;;;1.05;86.11;95794.59;5108413;28;20580;-73
2021/12/07 07:42:42;;;;;;;6.00;2.40;;;;;;;1.03;85.88;95816.31;5111254;27;20048;-73
2021/12/07 07:45:09;;;;;;;5.70;2.45;;;;;;;1.05;85.48;95826.78;5108615;28;20047;-73
2021/12/07 07:47:37;;;;;;;5.60;2.50;;;;;;;1.03;85.42;95826.22;5108804;27;20431;-73
2021/12/07 07:50:05;;;;;;;4.38;2.17;;;;;;;1.01;85.36;95831.06;5108453;28;20051;-73
2021/12/07 07:52:32;;;;;;;3.17;2.33;;;;;;;1.03;85.51;95826.22;5109113;28;20460;-73
2021/12/07 07:54:58;;;;;;;4.63;2.40;;;;;;;1.04;85.41;95835.88;5109063;28;20050;-73
2021/12/07 07:57:27;;;;;;;4.53;2.53;;;;;;;1.02;85.25;95838.84;5108136;28;20607;-73
2021/12/07 07:59:53;;;;;;;3.80;2.35;;;;;;;1.02;85.34;95838.03;5108597;27;20043;-73
2021/12/07 08:02:20;;;;;;;3.03;2.30;;;;;;;1.03;85.36;95842.31;5108244;27;20051;-73
2021/12/07 08:04:47;;;;;;;5.22;2.40;;;;;;;1.04;85.25;95851.97;5108754;28;20058;-73
2021/12/07 08:07:13;;;;;;;3.80;2.03;;;;;;;1.06;85.03;95843.66;5108049;27;20577;-74
2021/12/07 08:09:41;;;;;;;3.75;2.30;;;;;;;1.08;84.95;95853.03;5108869;27;20051;-75
2021/12/07 08:12:08;;;;;;;2.80;1.98;;;;;;;1.10;84.99;95856.28;5110083;27;20579;-73
2021/12/07 08:14:36;;;;;;;5.15;2.60;;;;;;;1.13;84.92;95852.22;5108937;28;20414;-74
2021/12/07 08:17:04;;;;;;;4.07;2.25;;;;;;;1.10;85.01;95858.13;5107893;28;20055;-73
2021/12/07 08:19:32;;;;;;;4.78;2.30;;;;;;;1.13;84.88;95855.72;5108330;28;20039;-74
2021/12/07 08:21:58;;;;;;;4.20;2.00;;;;;;;1.13;84.53;95861.06;5107955;28;20052;-74
2021/12/07 08:24:25;;;;;;;4.05;2.40;;;;;;;1.14;84.41;95859.19;5108057;28;20058;-75
2021/12/07 08:26:51;;;;;;;4.47;2.33;;;;;;;1.14;84.28;95862.69;5107544;28;20058;-75
2021/12/07 08:29:18;;;;;;;3.08;1.90;;;;;;;1.16;84.22;95863.22;5107575;28;20051;-75
2021/12/07 08:31:46;;;;;;;4.90;2.88;;;;;;;1.18;84.31;95858.38;5108585;28;20043;-74
2021/12/07 08:34:12;;;;;;;5.40;2.53;;;;;;;1.24;83.92;95862.66;5107821;28;20055;-74
2021/12/07 08:36:39;;;;;;;4.55;2.40;;;;;;;1.32;83.37;95866.69;5108248;28;20050;-75
2021/12/07 08:39:06;;;;;;;4.57;2.58;;;;;;;1.40;83.51;95873.38;5107482;28;20383;-75
2021/12/07 08:41:33;;;;;;;3.90;2.05;;;;;;;1.46;82.97;95881.16;5109986;28;20755;-74
2021/12/07 08:44:00;;;;;;;4.60;2.38;;;;;;;1.53;82.66;95864.78;5108134;28;20051;-74
2021/12/07 08:46:26;;;;;;;3.67;2.20;;;;;;;1.58;82.52;95872.81;5107630;28;20502;-74
2021/12/07 08:48:54;;;;;;;5.45;2.30;;;;;;;1.53;82.42;95870.13;5107816;28;20051;-74
2021/12/07 08:51:21;;;;;;;5.70;2.58;;;;;;;1.52;82.26;95868.53;5107833;28;20429;-74
2021/12/07 08:53:52;;;;;;;3.30;2.35;;;;;;;1.47;82.06;95887.34;5108185;28;20043;-75
2021/12/07 09:01:49;;;;;;;5.05;2.17;;;;;;;1.53;82.00;95872.81;5108287;28;20078;-74
2021/12/07 09:04:19;;;;;;;4.80;2.67;;;;;;;1.65;82.13;95886.75;5107444;28;20047;-75
2021/12/07 09:06:46;;;;;;;4.63;2.67;;;;;;;1.79;81.57;95882.41;5107736;28;20051;-75
2021/12/07 09:09:13;;;;;;;4.82;2.05;;;;;;;1.91;81.35;95892.03;5107203;28;20051;-75
2021/12/07 09:11:39;;;;;;;5.97;2.05;;;;;;;1.85;80.83;95883.19;5110006;28;20103;-75
2021/12/07 09:14:09;;;;;;;3.70;2.30;;;;;;;1.91;81.05;95892.03;5107305;28;20048;-75
2021/12/07 09:16:36;;;;;;;6.00;2.58;;;;;;;1.93;80.56;95889.88;5107393;28;20047;-74
2021/12/07 09:19:03;;;;;;;4.00;2.33;;;;;;;1.88;80.67;95893.41;5106841;28;20047;-75
2021/12/07 09:21:31;;;;;;;4.32;2.05;;;;;;;1.95;80.57;95891.22;5107531;28;20043;-75
2021/12/07 09:23:58;;;;;;;4.13;2.30;;;;;;;2.02;80.52;95889.03;5107658;28;20036;-74
2021/12/07 09:26:25;;;;;;;5.72;2.30;;;;;;;2.06;80.54;95890.09;5107096;28;20138;-74
2021/12/07 09:28:51;;;;;;;6.72;2.40;;;;;;;2.11;80.23;95891.16;5107245;28;20049;-75
2021/12/07 09:31:18;;;;;;;3.60;2.22;;;;;;;2.17;79.76;95890.84;5107136;28;20051;-75
2021/12/07 09:33:45;;;;;;;5.63;2.28;;;;;;;2.19;79.83;95888.69;5107804;28;20055;-74
2021/12/07 09:36:13;;;;;;;4.15;2.42;;;;;;;2.17;78.93;95896.22;5106994;28;20048;-75
2021/12/07 09:38:42;;;;;;;4.50;2.25;;;;;;;2.39;78.99;95897.72;5108667;28;20054;-74
2021/12/07 09:41:11;;;;;;;3.60;2.45;;;;;;;2.59;78.02;95903.00;5111267;27;20529;-75
2021/12/07 09:43:37;;;;;;;3.28;2.15;;;;;;;2.70;77.25;95898.34;5112613;27;20515;-75
2021/12/07 09:46:04;;;;;;;4.82;2.15;;;;;;;2.85;77.19;95900.94;5111292;28;20052;-76
2021/12/07 09:48:31;;;;;;;4.90;1.88;;;;;;;2.97;76.70;95895.19;5110673;28;20055;-76
2021/12/07 09:50:58;;;;;;;4.35;1.90;;;;;;;3.08;75.58;95894.03;5111129;28;20044;-78
2021/12/07 09:53:27;;;;;;;7.18;2.38;;;;;;;3.12;75.44;95895.88;5110724;28;20043;-75
2021/12/07 09:55:56;;;;;;;6.82;1.92;;;;;;;3.11;76.05;95888.09;5111255;28;20048;-76
2021/12/07 09:58:23;;;;;;;4.07;2.28;;;;;;;3.16;75.63;95888.06;5110571;27;20047;-80
2021/12/07 10:00:51;;;;;;;2.88;1.65;;;;;;;3.23;75.46;95890.44;5110940;27;20044;-75
2021/12/07 10:03:20;;;;;;;5.22;1.98;;;;;;;3.33;74.86;95888.44;5110773;28;20066;-75
2021/12/07 10:05:47;;;;;;;4.10;2.00;;;;;;;3.25;74.14;95882.88;5110901;27;20150;-75
2021/12/07 10:08:14;;;;;;;3.78;1.90;;;;;;;3.35;73.63;95875.53;5109931;28;20514;-76
2021/12/07 10:10:43;;;;;;;5.75;1.83;;;;;;;3.35;73.15;95888.97;5110945;28;20047;-75
2021/12/07 10:13:13;;;;;;;3.80;2.28;;;;;;;3.26;73.77;95895.25;5112624;27;20051;-75
2021/12/07 10:15:41;;;;;;;6.38;1.98;;;;;;;3.25;74.31;95891.75;5110808;28;20059;-75
2021/12/07 10:18:11;;;;;;;4.85;2.45;;;;;;;3.38;75.02;95877.63;5109843;28;20048;-75
2021/12/07 10:20:43;;;;;;;4.05;1.88;;;;;;;3.43;73.64;95884.06;5110502;28;20047;-75
2021/12/07 10:23:32;;;;;;;3.00;1.52;;;;;;;3.21;74.36;95893.41;5109982;28;20066;-75
2021/12/07 10:26:04;;;;;;;4.10;2.10;;;;;;;3.13;75.07;95891.31;5110589;28;20522;-75
2021/12/07 10:28:36;;;;;;;3.05;1.77;;;;;;;2.94;75.07;95893.09;5109650;28;20676;-75
2021/12/07 10:31:15;;;;;;;5.80;1.60;;;;;;;2.79;76.31;95892.09;5110024;27;20047;-75
2021/12/07 10:33:44;;;;;;;3.60;1.90;;;;;;;2.73;76.00;95887.84;5110494;27;20075;-75
2021/12/07 10:36:13;;;;;;;5.07;2.05;;;;;;;2.74;76.45;95892.16;5109829;28;20051;-75
2021/12/07 10:38:42;;;;;;;3.05;1.88;;;;;;;2.79;76.00;95886.72;5109766;28;20051;-75
2021/12/07 10:41:13;;;;;;;5.15;1.80;;;;;;;2.79;75.96;95885.94;5109840;28;20055;-75
2021/12/07 10:43:50;;;;;;;9.48;1.80;;;;;;;2.74;75.95;95888.66;5111183;27;20485;-75
2021/12/07 10:46:44;;;;;;;3.20;1.85;;;;;;;2.76;76.16;95898.03;5109867;27;20054;-75
2021/12/07 10:49:30;;;;;;;5.07;1.75;;;;;;;2.71;75.40;95906.13;5109145;28;20577;-75
2021/12/07 10:52:05;;;;;;;5.35;1.92;;;;;;;2.69;75.91;95897.56;5110035;27;20043;-75
2021/12/07 10:54:35;;;;;;;4.30;1.88;;;;;;;2.76;76.47;95889.97;5109984;28;20047;-75
2021/12/07 10:57:04;;;;;;;4.30;1.73;;;;;;;2.79;75.30;95897.50;5109771;28;20052;-75
2021/12/07 10:59:34;;;;;;;4.60;2.05;;;;;;;2.82;75.67;95902.31;5109243;28;20066;-74
2021/12/07 11:02:12;;;;;;;5.10;1.90;;;;;;;2.84;75.86;95902.03;5109980;28;20051;-75
2021/12/07 11:04:38;;;;;;;3.08;2.00;;;;;;;3.02;76.34;95911.31;5109828;28;20550;-75
2021/12/07 11:07:08;;;;;;;7.25;2.15;;;;;;;3.21;75.63;95914.13;5109206;28;20059;-74
2021/12/07 11:09:45;;;;;;;2.83;1.60;;;;;;;3.25;74.40;95912.50;5109561;28;20055;-73
2021/12/07 11:12:14;;;;;;;5.10;2.13;;;;;;;3.20;74.79;95918.72;5111315;27;20557;-73
2021/12/07 11:14:49;;;;;;;3.90;2.10;;;;;;;3.10;74.20;95919.59;5109854;28;20058;-75
2021/12/07 11:17:17;;;;;;;5.13;2.03;;;;;;;3.10;74.48;95924.16;5109000;28;20509;-74
2021/12/07 11:19:43;;;;;;;3.55;2.08;;;;;;;3.07;74.73;95919.34;5109047;28;20051;-76
2021/12/07 11:22:14;;;;;;;6.50;2.25;;;;;;;3.09;75.13;95911.81;5108824;28;20054;-73
2021/12/07 11:24:44;;;;;;;6.47;2.00;;;;;;;3.18;75.02;95920.06;5109610;28;20050;-73
2021/12/07 11:30:05;;;;;;;3.80;1.92;;;;;;;3.13;74.74;95918.22;5109000;28;20051;-74
2021/12/07 11:32:31;;;;;;;7.60;1.73;;;;;;;3.08;74.46;95912.88;5109181;28;20598;-73
2021/12/07 11:35:11;;;;;;;3.35;1.90;;;;;;;3.08;74.36;95910.19;5109242;28;20058;-74
2021/12/07 11:37:39;;;;;;;4.72;1.70;;;;;;;3.08;74.19;95905.63;5088415;28;20046;-74
2021/12/07 11:40:09;;;;;;;3.83;1.70;;;;;;;3.03;73.83;95902.19;5087883;28;20052;-73
2021/12/07 11:42:38;;;;;;;5.00;1.90;;;;;;;2.96;74.13;95901.69;5078751;28;20132;-73
2021/12/07 11:45:10;;;;;;;3.20;1.85;;;;;;;2.96;74.26;95901.69;5068219;28;20048;-72
2021/12/07 11:47:40;;;;;;;3.45;1.55;;;;;;;3.04;74.34;95903.78;5068241;28;20045;-72
2021/12/07 11:50:15;;;;;;;5.28;1.92;;;;;;;3.05;73.91;95895.41;5067709;28;20052;-72
2021/12/07 11:52:42;;;;;;;3.45;1.92;;;;;;;3.11;74.31;95905.03;5068516;28;20067;-73
2021/12/07 11:55:09;;;;;;;4.38;1.60;;;;;;;3.09;73.57;95909.13;5068046;28;20048;-75
2021/12/07 11:57:36;;;;;;;6.63;1.98;;;;;;;3.14;74.83;95901.00;5068044;28;20052;-73
2021/12/07 12:00:09;;;;;;;4.07;1.85;;;;;;;3.15;74.14;95899.91;5067130;28;20053;-72
2021/12/07 12:02:35;;;;;;;4.57;1.63;;;;;;;3.16;74.13;95900.72;5067575;28;20048;-73
2021/12/07 12:05:02;;;;;;;7.47;1.60;;;;;;;3.07;73.36;95898.63;5067599;28;20071;-72
2021/12/07 12:07:29;;;;;;;4.65;1.75;;;;;;;3.07;74.05;95892.44;5067696;28;20044;-75
2021/12/07 12:09:55;;;;;;;2.75;1.70;;;;;;;3.10;73.77;95894.56;5067717;28;20044;-75
2021/12/07 12:12:28;;;;;;;3.30;1.50;;;;;;;3.09;73.98;95892.97;5070310;28;20052;-75
2021/12/07 12:15:05;;;;;;;2.67;1.33;;;;;;;3.12;73.70;95900.47;5068032;28;20495;-76
2021/12/07 12:17:39;;;;;;;3.50;1.48;;;;;;;3.10;73.89;95894.56;5067822;28;20041;-74
2021/12/07 12:20:22;;;;;;;5.13;1.60;;;;;;;3.10;73.27;95892.69;5067284;28;20067;-75
2021/12/07 12:22:55;;;;;;;5.65;2.05;;;;;;;3.08;73.04;95897.56;5067689;28;20048;-74
2021/12/07 12:25:25;;;;;;;5.30;1.70;;;;;;;3.04;73.48;95904.56;5067391;28;20056;-75
2021/12/07 12:27:55;;;;;;;3.30;1.50;;;;;;;3.05;73.21;95900.00;5067400;28;20713;-75
2021/12/07 12:30:24;;;;;;;3.90;1.50;;;;;;;3.08;74.06;95900.25;5067055;28;20056;-75
2021/12/07 12:32:55;;;;;;;2.78;1.50;;;;;;;3.06;72.71;95901.59;5067851;28;20048;-76
2021/12/07 12:35:34;;;;;;;5.25;1.50;;;;;;;3.00;73.21;95902.72;5067498;28;20059;-75
2021/12/07 12:38:02;;;;;;;4.05;1.52;;;;;;;3.00;73.30;95894.66;5067184;28;20110;-76
2021/12/07 12:40:31;;;;;;;4.68;1.30;;;;;;;3.03;72.78;95891.41;5067227;28;20040;-74
2021/12/07 12:42:58;;;;;;;2.83;1.40;;;;;;;3.08;73.11;95900.25;5070372;28;20045;-75
2021/12/07 12:45:29;;;;;;;4.93;1.40;;;;;;;3.11;72.36;95888.09;5067178;28;20052;-73
2021/12/07 12:48:00;;;;;;;3.45;1.20;;;;;;;3.14;71.80;95888.34;5067388;28;20052;-76
2021/12/07 12:50:30;;;;;;;2.75;1.40;;;;;;;3.22;72.26;95884.25;5067180;28;20420;-73
2021/12/07 12:53:00;;;;;;;4.57;1.50;;;;;;;3.30;72.63;95886.34;5067636;28;20064;-73
2021/12/07 12:55:35;;;;;;;4.22;1.48;;;;;;;3.35;72.50;95888.97;5071136;28;20048;-72
2021/12/07 12:58:03;;;;;;;2.53;1.45;;;;;;;3.43;71.67;95881.38;5087281;28;20051;-74
2021/12/07 13:00:57;;;;;;;5.43;1.58;;;;;;;3.46;71.33;95878.91;5070972;28;20051;-73
2021/12/07 13:03:25;;;;;;;;;;;;;;;3.45;71.33;95881.91;5087867;27;20055;-73
2021/12/07 13:06:00;;;;;;;4.85;1.70;;;;;;;3.39;71.71;95867.66;5087666;27;20326;-73